Bridgeport, NJ (08014)

5:01 AM EDT on July 30, 2016 (GMT -0400)
Logan (Flughafen) | | Change Station

Elev 39 ft 39.79 °N, 75.31 °W | Updated 4 minutes ago

Mostly Cloudy
Mostly Cloudy
70.2 °F
Feels Like 70.2 °F
N
0.0
Wind Variable Wind from ENE

Today
High -- | Low -- °F
--% Chance of Precip.
Yesterday
High -- | Low -- °F
Precip. -- in
Pressure 29.95 in
Visibility 9.0 miles
Clouds Mostly Cloudy 900 ft
Dew Point 69 °F
Humidity 96%
Rainfall 0.00 in
Snow Depth Not available.
5:58 AM 8:16 PM
Waning Crescent, 15% visible
METAR KPHL 300854Z 10003KT 9SM BKN009 23/22 A2995 RMK AO2 SLP141 T02330217 55000 $
Pressure 29.95 in
Visibility 9.0 miles
Clouds Mostly Cloudy 900 ft
Dew Point 69 °F
Humidity 96%
Rainfall 0.00 in
Snow Depth Not available.
5:58 AM 8:16 PM
Waning Crescent, 15% visible
METAR KPHL 300854Z 10003KT 9SM BKN009 23/22 A2995 RMK AO2 SLP141 T02330217 55000 $

10-Day Weather Forecast

Almanac

Astronomy

Jul. 30, 2016 Rise Set
Actual Time
Civil Twilight
Nautical Twilight
Astronomical Twilight
Moon
Length of Visible Light
Length of Day
Tomorrow will be .
, % of the Moon is Illuminated

Today's Extremes

State Highs State Lows

Community

WunderPhotos

Upload Photos

1,928,528 photos uploaded!

WunderBlog® & News

Nearby

Air Quality

  Air Quality AQ Index Pollutant
Not available.

Snow Depth

Station Depth Elevation

Earthquake Activity

City Distance Mag. Time & Date
Minimum magnitude displayed is 2.5.

Coastal Water Temperatures

Place Temperature

Stations

Nearby Weather Stations

Station Location Temp. Windchill Dew Point Humidity Wind Precip. Elev Updated Type
                   

Watches & Warnings

There are currently no watches in effect.